createdAt,value
2019-05-19T00:01:00.683Z,14.20
2019-05-19T00:03:29.114Z,14.16
2019-05-19T00:05:57.568Z,14.15
2019-05-19T00:08:26.044Z,14.10
2019-05-19T00:10:54.478Z,14.05
2019-05-19T00:13:22.922Z,14.03
2019-05-19T00:15:51.358Z,13.97
2019-05-19T00:18:19.783Z,13.96
2019-05-19T00:20:48.243Z,13.93
2019-05-19T00:23:16.841Z,13.88
2019-05-19T00:25:45.338Z,13.85
2019-05-19T00:28:13.777Z,13.84
2019-05-19T00:30:42.227Z,13.83
2019-05-19T00:33:10.665Z,13.85
2019-05-19T00:35:39.113Z,13.86
2019-05-19T00:38:07.571Z,13.91
2019-05-19T00:40:36.025Z,13.95
2019-05-19T00:43:04.473Z,13.98
2019-05-19T00:45:33.020Z,14.05
2019-05-19T00:48:01.465Z,14.13
2019-05-19T00:50:29.891Z,14.20
2019-05-19T00:52:59.102Z,14.26
2019-05-19T00:55:27.533Z,14.31
2019-05-19T00:57:56.909Z,14.37
2019-05-19T01:00:25.351Z,14.43
2019-05-19T01:02:53.791Z,14.51
2019-05-19T01:05:22.239Z,14.57
2019-05-19T01:07:50.689Z,14.61
2019-05-19T01:10:19.199Z,14.65
2019-05-19T01:12:47.721Z,14.69
2019-05-19T01:15:17.761Z,14.76
2019-05-19T01:17:46.197Z,14.80
2019-05-19T01:20:15.981Z,14.86
2019-05-19T01:22:44.461Z,14.86
2019-05-19T01:25:13.986Z,14.89
2019-05-19T01:27:42.420Z,14.90
2019-05-19T01:30:11.495Z,14.94
2019-05-19T01:32:39.927Z,14.96
2019-05-19T01:35:08.994Z,14.97
2019-05-19T01:37:37.429Z,15.00
2019-05-19T01:40:09.281Z,15.01
2019-05-19T01:42:37.801Z,15.03
2019-05-19T01:45:07.259Z,15.04
2019-05-19T01:47:35.783Z,15.08
2019-05-19T01:50:17.682Z,15.10
2019-05-19T01:52:36.263Z,15.09
2019-05-19T01:55:05.563Z,15.12
2019-05-19T01:57:33.992Z,15.12
2019-05-19T02:00:03.528Z,15.11
2019-05-19T02:02:32.419Z,15.12
2019-05-19T02:05:00.845Z,15.14
2019-05-19T02:07:29.294Z,15.13
2019-05-19T02:09:57.740Z,15.13
2019-05-19T02:12:26.160Z,15.12
2019-05-19T02:14:54.625Z,15.11
2019-05-19T02:17:23.055Z,15.09
2019-05-19T02:19:51.483Z,15.07
2019-05-19T02:22:19.943Z,15.07
2019-05-19T02:24:48.375Z,15.05
2019-05-19T02:27:16.813Z,15.04
2019-05-19T02:29:45.247Z,15.01
2019-05-19T02:32:13.714Z,15.01
2019-05-19T02:34:42.176Z,14.96
2019-05-19T02:37:10.638Z,14.96
2019-05-19T02:39:39.073Z,14.92
2019-05-19T02:42:09.647Z,14.88
2019-05-19T02:44:39.816Z,14.87
2019-05-19T02:47:09.897Z,14.86
2019-05-19T02:49:39.690Z,14.86
2019-05-19T02:52:10.317Z,14.86
2019-05-19T02:54:39.051Z,14.85
2019-05-19T02:57:08.140Z,14.82
2019-05-19T02:59:37.036Z,14.81
2019-05-19T03:02:07.095Z,14.81
2019-05-19T03:04:35.541Z,14.77
2019-05-19T03:07:04.042Z,14.75
2019-05-19T03:09:32.488Z,14.74
2019-05-19T03:12:00.914Z,14.73
2019-05-19T03:14:29.349Z,14.71
2019-05-19T03:16:57.769Z,14.71
2019-05-19T03:19:26.213Z,14.69
2019-05-19T03:21:54.804Z,14.68
2019-05-19T03:24:23.238Z,14.67
2019-05-19T03:26:51.664Z,14.66
2019-05-19T03:29:21.780Z,14.62
2019-05-19T03:31:58.060Z,14.62
2019-05-19T03:34:27.278Z,14.63
2019-05-19T03:36:55.705Z,14.60
2019-05-19T03:39:24.132Z,14.58
2019-05-19T03:41:52.624Z,14.55
2019-05-19T03:44:21.061Z,14.54
2019-05-19T03:46:49.487Z,14.55
2019-05-19T03:49:17.960Z,14.52
2019-05-19T03:51:46.433Z,12.77
2019-05-19T03:54:14.883Z,14.52
2019-05-19T03:56:43.375Z,14.51
2019-05-19T03:59:11.839Z,14.50
2019-05-19T04:01:40.295Z,14.51
2019-05-19T04:04:08.717Z,14.52
2019-05-19T04:06:37.163Z,14.52
2019-05-19T04:09:07.023Z,14.51
2019-05-19T04:11:35.803Z,14.55
2019-05-19T04:14:04.315Z,14.55
2019-05-19T04:16:32.753Z,14.55
2019-05-19T04:19:01.220Z,14.53
2019-05-19T04:21:38.744Z,14.53
2019-05-19T04:23:59.863Z,14.52
2019-05-19T04:26:28.300Z,14.50
2019-05-19T04:28:56.731Z,14.49
2019-05-19T04:31:25.170Z,14.50
2019-05-19T04:33:53.607Z,14.50
2019-05-19T04:36:22.128Z,14.52
2019-05-19T04:38:50.597Z,14.51
2019-05-19T04:41:19.027Z,14.52
2019-05-19T04:43:47.660Z,14.51
2019-05-19T04:46:16.442Z,14.53
2019-05-19T04:48:44.888Z,14.53
2019-05-19T04:51:13.344Z,14.55
2019-05-19T04:53:41.770Z,14.56
2019-05-19T04:56:10.234Z,14.53
2019-05-19T04:58:38.663Z,14.53
2019-05-19T05:01:07.080Z,14.58
2019-05-19T05:03:35.517Z,14.61
2019-05-19T05:06:04.069Z,14.63
2019-05-19T05:08:32.498Z,14.64
2019-05-19T05:11:00.938Z,14.67
2019-05-19T05:13:29.373Z,14.71
2019-05-19T05:15:57.840Z,14.74
2019-05-19T05:18:26.312Z,14.76
2019-05-19T05:20:54.714Z,14.81
2019-05-19T05:23:23.141Z,14.83
2019-05-19T05:25:51.573Z,14.86
2019-05-19T05:28:20.007Z,14.88
2019-05-19T05:30:48.444Z,14.92
2019-05-19T05:33:18.080Z,14.58
2019-05-19T05:35:46.515Z,14.99
2019-05-19T05:38:14.956Z,15.03
2019-05-19T05:40:43.404Z,15.06
2019-05-19T05:43:11.859Z,15.13
2019-05-19T05:45:40.281Z,15.18
2019-05-19T05:48:08.746Z,15.28
2019-05-19T05:50:37.201Z,15.30
2019-05-19T05:53:05.658Z,15.36
2019-05-19T05:55:34.082Z,15.38
2019-05-19T05:58:02.533Z,15.44
2019-05-19T06:00:31.003Z,15.48
2019-05-19T06:02:59.710Z,15.50
2019-05-19T06:05:28.128Z,15.54
2019-05-19T06:07:56.578Z,15.57
2019-05-19T06:10:25.002Z,15.62
2019-05-19T06:12:53.436Z,15.68
2019-05-19T06:15:21.904Z,15.68
2019-05-19T06:17:50.320Z,15.78
2019-05-19T06:20:18.763Z,15.83
2019-05-19T06:22:56.504Z,15.95
2019-05-19T06:25:16.615Z,16.03
2019-05-19T06:27:45.065Z,16.58
2019-05-19T06:30:14.374Z,16.26
2019-05-19T06:32:50.169Z,16.30
2019-05-19T06:35:18.742Z,16.37
2019-05-19T06:37:47.195Z,16.39
2019-05-19T06:40:16.439Z,16.44
2019-05-19T06:42:44.865Z,16.41
2019-05-19T06:45:14.443Z,16.42
2019-05-19T06:47:42.867Z,16.37
2019-05-19T06:50:12.041Z,16.40
2019-05-19T06:52:40.502Z,16.43
2019-05-19T06:55:09.189Z,16.49
2019-05-19T06:57:37.640Z,16.54
2019-05-19T07:00:07.730Z,16.57
2019-05-19T07:02:36.226Z,16.68
2019-05-19T07:05:06.411Z,16.75
2019-05-19T07:07:34.886Z,16.83
2019-05-19T07:10:04.305Z,16.92
2019-05-19T07:12:32.744Z,16.98
2019-05-19T07:15:01.300Z,16.98
2019-05-19T07:17:29.736Z,17.02
2019-05-19T07:19:58.167Z,17.13
2019-05-19T07:22:26.621Z,17.17
2019-05-19T07:24:55.046Z,17.26
2019-05-19T07:27:23.499Z,17.33
2019-05-19T07:29:51.996Z,17.42
2019-05-19T07:32:20.754Z,17.43
2019-05-19T07:34:49.203Z,17.43
2019-05-19T07:37:17.633Z,17.41
2019-05-19T07:39:46.152Z,17.25
2019-05-19T07:42:14.608Z,17.19
2019-05-19T07:44:45.279Z,17.25
2019-05-19T07:47:13.449Z,17.40
2019-05-19T07:49:41.920Z,17.57
2019-05-19T07:52:10.351Z,17.63
2019-05-19T07:54:38.778Z,17.74
2019-05-19T07:57:07.279Z,17.85
2019-05-19T07:59:35.715Z,18.00
2019-05-19T08:02:04.229Z,18.05
2019-05-19T08:04:32.668Z,18.17
2019-05-19T08:07:01.108Z,18.24
2019-05-19T08:09:29.548Z,18.29
2019-05-19T08:11:58.018Z,18.26
2019-05-19T08:14:26.441Z,18.36
2019-05-19T08:16:54.878Z,18.41
2019-05-19T08:19:23.348Z,18.49
2019-05-19T08:21:51.769Z,18.54
2019-05-19T08:24:20.198Z,18.67
2019-05-19T08:26:48.636Z,18.73
2019-05-19T08:29:17.065Z,18.71
2019-05-19T08:31:45.514Z,18.79
2019-05-19T08:34:13.947Z,18.84
2019-05-19T08:36:42.411Z,18.93
2019-05-19T08:39:10.893Z,19.03
2019-05-19T08:41:39.361Z,19.22
2019-05-19T08:44:07.798Z,19.39
2019-05-19T08:46:36.234Z,19.64
2019-05-19T08:49:04.734Z,19.79
2019-05-19T08:51:33.165Z,19.21
2019-05-19T08:54:13.906Z,19.78
2019-05-19T08:56:31.741Z,19.63
2019-05-19T08:59:00.180Z,19.72
2019-05-19T09:01:28.611Z,19.73
2019-05-19T09:03:57.146Z,19.77
2019-05-19T09:06:25.584Z,19.84
2019-05-19T09:08:54.017Z,19.83
2019-05-19T09:11:22.441Z,20.06
2019-05-19T09:13:50.882Z,20.24
2019-05-19T09:16:19.337Z,20.43
2019-05-19T09:18:47.846Z,20.66
2019-05-19T09:21:17.511Z,20.52
2019-05-19T09:23:45.917Z,21.03
2019-05-19T09:26:14.387Z,21.22
2019-05-19T09:28:42.839Z,21.55
2019-05-19T09:31:11.272Z,21.70
2019-05-19T09:33:39.714Z,21.95
2019-05-19T09:36:08.145Z,22.23
2019-05-19T09:38:36.901Z,22.58
2019-05-19T09:41:05.509Z,22.96
2019-05-19T09:43:33.934Z,23.19
2019-05-19T09:46:02.375Z,23.52
2019-05-19T09:48:30.835Z,23.98
2019-05-19T09:50:59.278Z,24.26
2019-05-19T09:53:27.708Z,24.31
2019-05-19T09:55:56.132Z,24.34
2019-05-19T09:58:26.116Z,24.42
2019-05-19T10:00:53.812Z,24.80
2019-05-19T10:03:22.302Z,25.54
2019-05-19T10:05:50.701Z,25.15
2019-05-19T10:08:25.474Z,25.12
2019-05-19T10:11:16.556Z,25.34
2019-05-19T10:13:45.039Z,25.50
2019-05-19T10:16:13.463Z,25.63
2019-05-19T10:18:41.929Z,25.82
2019-05-19T10:21:10.392Z,26.24
2019-05-19T10:23:38.777Z,26.41
2019-05-19T10:26:07.246Z,26.37
2019-05-19T10:28:35.661Z,26.23
2019-05-19T10:31:04.097Z,26.11
2019-05-19T10:33:32.547Z,26.07
2019-05-19T10:36:01.011Z,26.38
2019-05-19T10:38:29.483Z,26.78
2019-05-19T10:40:57.905Z,26.84
2019-05-19T10:43:26.329Z,26.92
2019-05-19T10:46:00.614Z,27.16
2019-05-19T10:48:29.047Z,27.23
2019-05-19T10:50:57.477Z,27.65
2019-05-19T10:53:25.930Z,27.72
2019-05-19T10:55:54.405Z,28.03
2019-05-19T10:58:22.819Z,28.05
2019-05-19T11:00:51.252Z,28.32
2019-05-19T11:03:19.687Z,28.40
2019-05-19T11:05:48.110Z,28.62
2019-05-19T11:08:16.563Z,28.84
2019-05-19T11:10:44.974Z,28.84
2019-05-19T11:13:13.405Z,28.86
2019-05-19T11:15:41.838Z,28.93
2019-05-19T11:18:10.274Z,28.64
2019-05-19T11:20:38.718Z,28.65
2019-05-19T11:23:07.148Z,28.67
2019-05-19T11:25:49.261Z,28.77
2019-05-19T11:28:05.735Z,28.83
2019-05-19T11:30:34.158Z,29.17
2019-05-19T11:33:02.599Z,29.23
2019-05-19T11:35:31.072Z,29.23
2019-05-19T11:37:59.837Z,29.33
2019-05-19T11:40:28.253Z,29.96
2019-05-19T11:42:56.685Z,30.01
2019-05-19T11:45:25.141Z,30.03
2019-05-19T11:47:53.559Z,30.18
2019-05-19T11:50:21.978Z,30.16
2019-05-19T11:52:50.496Z,30.39
2019-05-19T11:55:18.917Z,30.02
2019-05-19T11:57:47.379Z,30.16
2019-05-19T12:00:16.238Z,30.23
2019-05-19T12:02:44.657Z,30.08
2019-05-19T12:05:13.647Z,30.16
2019-05-19T12:07:42.067Z,30.32
2019-05-19T12:10:10.844Z,30.56
2019-05-19T12:12:39.385Z,30.56
2019-05-19T12:15:09.051Z,30.52
2019-05-19T12:17:36.753Z,30.59
2019-05-19T12:20:06.654Z,31.39
2019-05-19T12:22:35.094Z,30.48
2019-05-19T12:25:03.997Z,30.42
2019-05-19T12:27:32.467Z,30.50
2019-05-19T12:30:00.849Z,30.43
2019-05-19T12:32:29.346Z,30.64
2019-05-19T12:34:57.784Z,30.62
2019-05-19T12:37:26.246Z,30.26
2019-05-19T12:39:54.673Z,30.26
2019-05-19T12:42:23.109Z,30.21
2019-05-19T12:44:51.550Z,30.17
2019-05-19T12:47:19.994Z,30.35
2019-05-19T12:49:48.433Z,30.16
2019-05-19T12:52:16.858Z,30.21
2019-05-19T12:54:45.337Z,30.31
2019-05-19T12:57:13.828Z,30.18
2019-05-19T12:59:42.266Z,30.00
2019-05-19T13:02:10.870Z,29.86
2019-05-19T13:04:39.373Z,29.61
2019-05-19T13:07:07.775Z,29.60
2019-05-19T13:09:36.200Z,29.68
2019-05-19T13:12:04.746Z,29.48
2019-05-19T13:14:33.180Z,29.48
2019-05-19T13:17:01.620Z,29.74
2019-05-19T13:19:30.062Z,29.94
2019-05-19T13:21:58.546Z,30.16
2019-05-19T13:24:27.032Z,30.33
2019-05-19T13:26:56.982Z,30.38
2019-05-19T13:29:25.600Z,30.51
2019-05-19T13:31:54.025Z,30.54
2019-05-19T13:34:22.461Z,30.64
2019-05-19T13:36:50.905Z,30.63
2019-05-19T13:39:19.815Z,30.73
2019-05-19T13:41:48.255Z,30.43
2019-05-19T13:44:16.686Z,30.41
2019-05-19T13:46:45.133Z,30.52
2019-05-19T13:49:13.556Z,30.69
2019-05-19T13:51:41.994Z,30.40
2019-05-19T13:54:10.430Z,30.53
2019-05-19T13:56:38.868Z,30.51
2019-05-19T13:59:07.296Z,30.51
2019-05-19T14:01:35.733Z,30.43
2019-05-19T14:04:04.156Z,30.25
2019-05-19T14:06:32.596Z,30.25
2019-05-19T14:09:01.059Z,30.24
2019-05-19T14:11:29.481Z,30.08
2019-05-19T14:13:57.914Z,30.04
2019-05-19T14:16:26.370Z,29.68
2019-05-19T14:18:54.846Z,29.60
2019-05-19T14:21:23.240Z,29.62
2019-05-19T14:23:52.012Z,29.47
2019-05-19T14:26:20.623Z,29.32
2019-05-19T14:28:49.019Z,29.24
2019-05-19T14:31:17.449Z,29.19
2019-05-19T14:33:45.907Z,28.89
2019-05-19T14:36:14.345Z,28.80
2019-05-19T14:38:44.456Z,28.67
2019-05-19T14:41:12.877Z,28.53
2019-05-19T14:43:41.309Z,28.37
2019-05-19T14:46:09.765Z,28.46
2019-05-19T14:48:38.170Z,28.36
2019-05-19T14:51:06.600Z,28.52
2019-05-19T14:53:35.041Z,28.35
2019-05-19T14:56:03.566Z,28.44
2019-05-19T14:58:31.996Z,28.23
2019-05-19T15:01:00.455Z,28.53
2019-05-19T15:03:28.882Z,28.23
2019-05-19T15:05:57.327Z,28.25
2019-05-19T15:08:25.750Z,28.28
2019-05-19T15:10:54.178Z,28.31
2019-05-19T15:13:22.605Z,28.29
2019-05-19T15:15:51.069Z,28.32
2019-05-19T15:18:19.500Z,28.50
2019-05-19T15:20:47.932Z,28.44
2019-05-19T15:23:16.368Z,28.58
2019-05-19T15:25:44.813Z,28.81
2019-05-19T15:28:13.273Z,28.56
2019-05-19T15:30:41.698Z,28.80
2019-05-19T15:33:10.164Z,28.82
2019-05-19T15:35:38.591Z,28.82
2019-05-19T15:38:07.123Z,28.87
2019-05-19T15:40:35.565Z,28.76
2019-05-19T15:43:03.984Z,28.55
2019-05-19T15:45:32.416Z,28.27
2019-05-19T15:48:00.837Z,28.07
2019-05-19T15:50:29.264Z,27.68
2019-05-19T15:52:57.764Z,27.45
2019-05-19T15:55:26.208Z,27.10
2019-05-19T15:57:54.648Z,26.91
2019-05-19T16:00:23.358Z,26.59
2019-05-19T16:02:51.782Z,26.41
2019-05-19T16:05:20.224Z,26.12
2019-05-19T16:07:48.657Z,25.95
2019-05-19T16:10:17.501Z,25.67
2019-05-19T16:12:46.016Z,25.51
2019-05-19T16:15:14.997Z,25.27
2019-05-19T16:17:43.471Z,25.22
2019-05-19T16:20:12.338Z,25.25
2019-05-19T16:22:40.911Z,25.22
2019-05-19T16:25:10.080Z,25.45
2019-05-19T16:27:38.707Z,25.74
2019-05-19T16:30:07.867Z,25.97
2019-05-19T16:32:36.352Z,26.13
2019-05-19T16:35:06.702Z,26.31
2019-05-19T16:37:35.136Z,26.46
2019-05-19T16:40:03.829Z,26.51
2019-05-19T16:42:32.295Z,26.66
2019-05-19T16:45:00.730Z,26.80
2019-05-19T16:47:29.161Z,26.86
2019-05-19T16:49:57.617Z,26.92
2019-05-19T16:52:26.077Z,27.08
2019-05-19T16:55:12.277Z,27.03
2019-05-19T16:57:40.689Z,27.16
2019-05-19T17:00:09.454Z,27.24
2019-05-19T17:02:37.879Z,27.23
2019-05-19T17:05:07.755Z,27.22
2019-05-19T17:07:36.273Z,27.22
2019-05-19T17:10:07.098Z,27.06
2019-05-19T17:12:35.536Z,26.92
2019-05-19T17:15:04.938Z,26.83
2019-05-19T17:17:33.366Z,26.61
2019-05-19T17:20:01.805Z,26.66
2019-05-19T17:22:30.229Z,26.60
2019-05-19T17:25:00.417Z,26.47
2019-05-19T17:27:28.976Z,26.43
2019-05-19T17:29:57.411Z,26.47
2019-05-19T17:32:25.842Z,26.43
2019-05-19T17:34:54.273Z,26.34
2019-05-19T17:37:22.745Z,26.37
2019-05-19T17:39:51.151Z,26.25
2019-05-19T17:42:19.591Z,26.17
2019-05-19T17:44:48.030Z,26.06
2019-05-19T17:47:16.905Z,26.08
2019-05-19T17:49:45.419Z,25.96
2019-05-19T17:52:13.923Z,25.85
2019-05-19T17:54:42.430Z,25.73
2019-05-19T17:57:11.449Z,25.62
2019-05-19T17:59:41.659Z,25.44
2019-05-19T18:02:10.096Z,25.29
2019-05-19T18:04:38.525Z,25.19
2019-05-19T18:07:06.964Z,25.02
2019-05-19T18:09:35.394Z,24.71
2019-05-19T18:12:03.823Z,24.71
2019-05-19T18:14:32.263Z,24.54
2019-05-19T18:17:00.696Z,24.46
2019-05-19T18:19:29.161Z,24.12
2019-05-19T18:21:57.591Z,24.06
2019-05-19T18:24:26.023Z,23.81
2019-05-19T18:26:54.458Z,23.67
2019-05-19T18:29:30.958Z,23.52
2019-05-19T18:31:52.330Z,23.31
2019-05-19T18:34:20.704Z,23.71
2019-05-19T18:36:49.179Z,22.95
2019-05-19T18:39:17.660Z,22.70
2019-05-19T18:41:46.094Z,22.50
2019-05-19T18:44:14.518Z,22.32
2019-05-19T18:46:43.157Z,22.07
2019-05-19T18:49:11.650Z,21.92
2019-05-19T18:51:40.098Z,21.73
2019-05-19T18:54:08.534Z,21.55
2019-05-19T18:56:37.080Z,21.36
2019-05-19T18:59:05.506Z,21.20
2019-05-19T19:01:34.023Z,21.02
2019-05-19T19:04:02.471Z,20.83
2019-05-19T19:06:32.650Z,20.71
2019-05-19T19:09:01.205Z,20.53
2019-05-19T19:11:29.761Z,20.44
2019-05-19T19:13:58.242Z,20.22
2019-05-19T19:16:29.694Z,20.12
2019-05-19T19:18:58.271Z,19.98
2019-05-19T19:21:26.730Z,19.83
2019-05-19T19:23:55.203Z,19.71
2019-05-19T19:26:23.678Z,19.57
2019-05-19T19:28:52.135Z,19.44
2019-05-19T19:31:21.698Z,19.35
2019-05-19T19:33:49.379Z,19.20
2019-05-19T19:36:18.513Z,19.48
2019-05-19T19:38:47.023Z,18.98
2019-05-19T19:41:15.477Z,18.85
2019-05-19T19:43:43.906Z,18.72
2019-05-19T19:46:12.386Z,18.62
2019-05-19T19:48:40.880Z,18.53
2019-05-19T19:51:09.336Z,18.44
2019-05-19T19:53:37.754Z,18.37
2019-05-19T19:56:06.295Z,18.27
2019-05-19T19:58:34.732Z,18.18
2019-05-19T20:01:03.168Z,18.11
2019-05-19T20:03:32.184Z,18.02
2019-05-19T20:06:00.606Z,17.95
2019-05-19T20:08:29.076Z,17.88
2019-05-19T20:10:57.551Z,17.83
2019-05-19T20:13:25.936Z,17.73
2019-05-19T20:15:54.670Z,17.67
2019-05-19T20:18:23.192Z,17.57
2019-05-19T20:20:51.589Z,17.53
2019-05-19T20:23:20.075Z,17.44
2019-05-19T20:25:48.585Z,17.38
2019-05-19T20:28:17.041Z,17.33
2019-05-19T20:30:45.538Z,17.27
2019-05-19T20:33:14.091Z,17.22
2019-05-19T20:35:42.817Z,17.19
2019-05-19T20:38:11.436Z,17.14
2019-05-19T20:40:39.865Z,17.10
2019-05-19T20:43:08.327Z,17.05
2019-05-19T20:45:36.750Z,17.00
2019-05-19T20:48:05.248Z,16.98
2019-05-19T20:50:33.749Z,14.43
2019-05-19T20:53:02.245Z,16.92
2019-05-19T20:55:30.666Z,16.88
2019-05-19T20:57:59.162Z,16.87
2019-05-19T21:00:28.024Z,16.83
2019-05-19T21:02:56.460Z,16.80
2019-05-19T21:05:24.897Z,16.74
2019-05-19T21:07:53.358Z,14.38
2019-05-19T21:10:21.812Z,16.69
2019-05-19T21:12:50.244Z,16.67
2019-05-19T21:15:18.682Z,16.64
2019-05-19T21:17:47.108Z,16.62
2019-05-19T21:20:15.669Z,16.60
2019-05-19T21:22:44.100Z,16.57
2019-05-19T21:25:12.612Z,16.56
2019-05-19T21:27:41.072Z,16.54
2019-05-19T21:30:09.960Z,16.50
2019-05-19T21:32:38.403Z,16.49
2019-05-19T21:35:07.589Z,16.45
2019-05-19T21:37:36.021Z,16.44
2019-05-19T21:40:07.074Z,16.42
2019-05-19T21:42:35.526Z,16.43
2019-05-19T21:45:05.315Z,16.42
2019-05-19T21:47:33.732Z,16.41
2019-05-19T21:50:02.523Z,16.43
2019-05-19T21:52:31.150Z,16.40
2019-05-19T21:54:59.921Z,16.40
2019-05-19T21:57:28.368Z,16.38
2019-05-19T21:59:56.790Z,16.38
2019-05-19T22:02:25.294Z,16.38
2019-05-19T22:04:53.777Z,16.35
2019-05-19T22:07:26.778Z,16.35
2019-05-19T22:09:55.221Z,16.31
2019-05-19T22:12:23.719Z,16.30
2019-05-19T22:14:52.143Z,16.26
2019-05-19T22:17:20.601Z,16.24
2019-05-19T22:19:49.034Z,16.19
2019-05-19T22:22:17.484Z,16.16
2019-05-19T22:24:45.919Z,16.12
2019-05-19T22:27:14.358Z,16.10
2019-05-19T22:29:42.796Z,16.04
2019-05-19T22:32:11.237Z,16.03
2019-05-19T22:34:39.669Z,15.96
2019-05-19T22:37:08.283Z,15.94
2019-05-19T22:39:36.801Z,15.91
2019-05-19T22:42:05.243Z,15.88
2019-05-19T22:44:33.689Z,15.83
2019-05-19T22:47:02.153Z,15.81
2019-05-19T22:49:30.557Z,15.75
2019-05-19T22:51:58.986Z,15.72
2019-05-19T22:54:27.429Z,15.67
2019-05-19T22:56:55.854Z,15.65
2019-05-19T22:59:24.298Z,15.59
2019-05-19T23:01:52.747Z,15.55
2019-05-19T23:04:21.175Z,15.51
2019-05-19T23:06:49.626Z,15.46
2019-05-19T23:09:18.064Z,15.41
2019-05-19T23:11:46.498Z,15.37
2019-05-19T23:14:14.949Z,15.33
2019-05-19T23:16:43.380Z,14.79
2019-05-19T23:19:11.823Z,15.25
2019-05-19T23:21:40.267Z,15.23
2019-05-19T23:24:08.722Z,15.21
2019-05-19T23:26:37.154Z,15.17
2019-05-19T23:29:05.610Z,15.17
2019-05-19T23:31:34.112Z,15.17
2019-05-19T23:34:02.535Z,15.18
2019-05-19T23:36:30.989Z,15.21
2019-05-19T23:38:59.442Z,15.23
2019-05-19T23:41:27.880Z,15.24
2019-05-19T23:43:56.314Z,15.28
2019-05-19T23:46:24.745Z,15.32
2019-05-19T23:48:53.213Z,15.35
2019-05-19T23:51:21.647Z,15.39
2019-05-19T23:53:50.086Z,15.43
2019-05-19T23:56:18.529Z,15.47
2019-05-19T23:58:46.948Z,15.49
